createdAt,value
2023-01-06T00:00:27.855Z,85.13
2023-01-06T00:01:28.080Z,89.04
2023-01-06T00:02:28.380Z,94.61
2023-01-06T00:03:28.100Z,99.01
2023-01-06T00:04:27.675Z,98.18
2023-01-06T00:05:27.594Z,98.94
2023-01-06T00:06:28.269Z,100.66
2023-01-06T00:07:27.525Z,101.84
2023-01-06T01:50:11.375Z,25.00
2023-01-06T02:05:43.620Z,25.00
2023-01-06T02:06:44.140Z,25.00
2023-01-06T02:07:43.866Z,25.00
2023-01-06T02:08:43.819Z,25.00
2023-01-06T02:09:43.798Z,25.00
2023-01-06T02:10:43.729Z,23.51
2023-01-06T02:11:43.960Z,25.00
2023-01-06T02:12:43.900Z,23.98
2023-01-06T02:13:44.397Z,38.13
2023-01-06T02:14:43.530Z,61.45
2023-01-06T02:15:43.863Z,89.72
2023-01-06T02:16:43.696Z,131.94
2023-01-06T02:17:43.390Z,169.44
2023-01-06T02:18:43.345Z,194.24
2023-01-06T02:19:43.498Z,209.21
2023-01-06T02:20:43.322Z,225.96
2023-01-06T02:21:43.277Z,236.42
2023-01-06T02:22:43.136Z,240.71
2023-01-06T02:23:45.758Z,244.01
2023-01-06T02:24:43.018Z,244.08
2023-01-06T02:25:45.601Z,237.72
2023-01-06T02:26:42.908Z,241.98
2023-01-06T02:27:43.403Z,233.01
2023-01-06T02:28:42.898Z,234.56
2023-01-06T02:29:42.750Z,237.03
2023-01-06T02:30:42.699Z,230.00
2023-01-06T02:31:45.088Z,218.75
2023-01-06T02:32:42.878Z,218.77
2023-01-06T02:33:42.571Z,206.33
2023-01-06T02:34:42.853Z,198.81
2023-01-06T02:35:42.814Z,181.78
2023-01-06T02:36:42.431Z,167.48
2023-01-06T02:37:43.494Z,167.39
2023-01-06T02:38:42.634Z,167.52
2023-01-06T02:39:42.483Z,167.28
2023-01-06T02:40:42.448Z,167.05
2023-01-06T02:41:42.567Z,166.55
2023-01-06T02:42:42.171Z,162.13
2023-01-06T02:43:42.700Z,156.36
2023-01-06T02:44:42.364Z,151.18
2023-01-06T02:45:42.308Z,135.63
2023-01-06T02:46:42.065Z,113.47
2023-01-06T02:47:42.075Z,87.95
2023-01-06T02:48:42.028Z,56.25
2023-01-06T02:49:41.869Z,44.37
2023-01-06T02:50:41.839Z,23.77
2023-01-06T02:51:41.776Z,25.00
2023-01-06T02:52:42.150Z,25.00
2023-01-06T02:53:41.866Z,25.06
2023-01-06T02:54:41.869Z,26.29
2023-01-06T02:55:41.635Z,25.00
2023-01-06T02:56:43.730Z,28.48
2023-01-06T02:57:41.864Z,24.94
2023-01-06T02:58:41.493Z,23.39
2023-01-06T02:59:42.151Z,23.82
2023-01-06T03:00:41.432Z,21.03
2023-01-06T03:01:41.759Z,28.79
2023-01-06T03:02:41.308Z,37.98
2023-01-06T03:03:41.248Z,53.19
2023-01-06T03:04:41.237Z,71.40
2023-01-06T03:05:41.280Z,102.72
2023-01-06T03:06:41.817Z,110.12
2023-01-06T03:07:44.833Z,117.59
2023-01-06T03:08:41.433Z,118.16
2023-01-06T03:09:41.214Z,118.74
2023-01-06T03:10:41.043Z,117.26
2023-01-06T03:11:41.121Z,117.23
2023-01-06T03:12:41.220Z,127.56
2023-01-06T03:13:40.910Z,128.88
2023-01-06T03:14:40.857Z,118.87
2023-01-06T03:15:41.061Z,100.51
2023-01-06T03:16:41.400Z,81.24
2023-01-06T03:17:40.711Z,70.34
2023-01-06T03:18:40.653Z,56.15
2023-01-06T03:19:41.061Z,52.78
2023-01-06T03:20:40.760Z,42.68
2023-01-06T03:21:40.513Z,47.52
2023-01-06T03:23:40.452Z,39.56
2023-01-06T03:24:40.373Z,39.30
2023-01-06T03:25:40.423Z,25.96
2023-01-06T03:26:40.266Z,32.92
2023-01-06T03:27:40.624Z,27.42
2023-01-06T03:28:40.394Z,26.80
2023-01-06T03:29:40.465Z,26.63
2023-01-06T03:30:40.091Z,26.86
2023-01-06T03:31:40.143Z,33.18
2023-01-06T03:32:40.255Z,34.51
2023-01-06T03:33:39.980Z,33.25
2023-01-06T03:34:39.950Z,29.82
2023-01-06T03:35:40.094Z,25.00
2023-01-06T03:36:39.877Z,28.18
2023-01-06T03:37:40.326Z,32.29
2023-01-06T03:38:40.509Z,29.37
2023-01-06T03:39:39.775Z,28.11
2023-01-06T03:40:40.205Z,31.49
2023-01-06T03:41:40.128Z,54.09
2023-01-06T03:42:40.157Z,81.71
2023-01-06T03:43:40.241Z,112.15
2023-01-06T03:44:39.777Z,140.68
2023-01-06T03:45:39.928Z,173.54
2023-01-06T03:46:39.550Z,195.86
2023-01-06T03:48:39.443Z,209.99
2023-01-06T03:49:39.544Z,210.44
2023-01-06T03:50:40.007Z,211.02
2023-01-06T03:51:39.300Z,216.62
2023-01-06T03:52:39.255Z,225.12
2023-01-06T03:53:39.195Z,226.31
2023-01-06T03:54:39.147Z,229.09
2023-01-06T03:55:39.112Z,238.94
2023-01-06T03:56:39.512Z,247.67
2023-01-06T03:57:39.147Z,248.19
2023-01-06T03:58:39.661Z,249.10
2023-01-06T03:59:39.130Z,249.61
2023-01-06T04:00:38.997Z,247.15
2023-01-06T04:01:38.956Z,248.98
2023-01-06T04:02:38.810Z,249.41
2023-01-06T04:03:39.587Z,249.33
2023-01-06T04:04:38.722Z,250.00
2023-01-06T04:05:38.714Z,248.42
2023-01-06T04:06:38.794Z,249.95
2023-01-06T04:07:38.631Z,249.08
2023-01-06T04:08:39.217Z,243.62
2023-01-06T04:09:38.997Z,244.19
2023-01-06T04:10:38.687Z,249.88
2023-01-06T04:11:38.396Z,244.76
2023-01-06T04:12:38.381Z,236.53
2023-01-06T04:13:38.412Z,238.96
2023-01-06T04:14:40.118Z,242.99
2023-01-06T04:15:39.049Z,243.13
2023-01-06T04:16:38.522Z,243.36
2023-01-06T04:17:38.113Z,245.05
2023-01-06T04:18:38.555Z,247.65
2023-01-06T04:19:38.024Z,254.81
2023-01-06T04:20:37.988Z,259.91
2023-01-06T04:21:37.933Z,241.19
2023-01-06T04:22:38.101Z,243.98
2023-01-06T04:23:37.871Z,244.49
2023-01-06T04:24:37.830Z,240.92
2023-01-06T04:25:38.121Z,242.46
2023-01-06T04:26:38.083Z,239.07
2023-01-06T04:27:37.734Z,242.55
2023-01-06T04:28:37.676Z,244.39
2023-01-06T04:29:37.747Z,244.35
2023-01-06T04:30:37.723Z,242.29
2023-01-06T04:31:37.600Z,238.50
2023-01-06T04:32:39.040Z,231.07
2023-01-06T04:33:37.853Z,233.00
2023-01-06T04:34:37.450Z,233.01
2023-01-06T04:35:37.411Z,225.02
2023-01-06T04:36:37.778Z,221.20
2023-01-06T04:37:37.469Z,224.05
2023-01-06T04:38:38.026Z,220.06
2023-01-06T04:39:37.293Z,218.91
2023-01-06T04:40:37.279Z,220.07
2023-01-06T04:41:37.231Z,217.33
2023-01-06T04:42:37.684Z,221.30
2023-01-06T04:43:37.151Z,219.61
2023-01-06T04:44:37.094Z,216.98
2023-01-06T04:45:37.426Z,215.91
2023-01-06T04:46:37.426Z,216.14
2023-01-06T04:47:37.333Z,217.25
2023-01-06T04:48:38.147Z,218.53
2023-01-06T04:49:37.315Z,221.95
2023-01-06T04:50:37.706Z,227.06
2023-01-06T04:51:37.060Z,228.42
2023-01-06T04:52:37.013Z,230.32
2023-01-06T04:53:37.299Z,226.24
2023-01-06T04:54:36.924Z,231.37
2023-01-06T04:55:37.226Z,227.77
2023-01-06T04:56:36.895Z,229.18
2023-01-06T04:57:36.842Z,225.87
2023-01-06T04:58:36.802Z,224.66
2023-01-06T04:59:36.764Z,223.82
2023-01-06T05:00:37.168Z,219.05
2023-01-06T05:01:36.939Z,213.27
2023-01-06T05:02:36.630Z,213.22
2023-01-06T05:03:36.819Z,212.40
2023-01-06T05:04:47.002Z,211.64
2023-01-06T05:05:36.532Z,211.85
2023-01-06T05:06:36.664Z,211.73
2023-01-06T05:07:36.844Z,171.13
2023-01-06T05:08:37.067Z,147.42
2023-01-06T05:09:36.802Z,134.62
2023-01-06T05:10:36.331Z,129.11
2023-01-06T05:11:36.752Z,129.25
2023-01-06T05:12:36.583Z,133.15
2023-01-06T05:13:36.219Z,131.15
2023-01-06T05:14:38.036Z,128.53
2023-01-06T05:15:36.575Z,128.00
2023-01-06T05:16:36.409Z,128.92
2023-01-06T05:17:37.109Z,131.50
2023-01-06T05:18:36.181Z,138.98
2023-01-06T05:19:36.200Z,141.03
2023-01-06T05:20:36.165Z,140.09
2023-01-06T05:21:35.884Z,139.26
2023-01-06T05:22:36.228Z,151.95
2023-01-06T05:23:35.795Z,166.46
2023-01-06T05:24:36.808Z,178.21
2023-01-06T05:25:36.011Z,195.69
2023-01-06T05:26:35.665Z,204.34
2023-01-06T05:27:35.623Z,213.79
2023-01-06T05:28:35.597Z,221.14
2023-01-06T05:29:35.563Z,225.76
2023-01-06T05:30:35.538Z,231.66
2023-01-06T05:31:36.475Z,239.41
2023-01-06T05:32:35.428Z,245.60
2023-01-06T05:33:37.966Z,250.00
2023-01-06T05:34:35.463Z,250.36
2023-01-06T05:35:35.595Z,252.45
2023-01-06T05:36:35.240Z,257.51
2023-01-06T05:37:35.178Z,263.82
2023-01-06T05:38:35.345Z,267.93
2023-01-06T05:39:35.125Z,244.93
2023-01-06T05:40:35.426Z,243.57
2023-01-06T05:41:35.251Z,236.02
2023-01-06T05:42:35.131Z,221.98
2023-01-06T05:43:34.917Z,214.78
2023-01-06T05:44:34.892Z,216.65
2023-01-06T05:45:37.263Z,201.92
2023-01-06T05:46:34.813Z,201.96
2023-01-06T05:47:34.993Z,186.86
2023-01-06T05:48:34.966Z,170.79
2023-01-06T05:49:34.776Z,161.28
2023-01-06T05:50:34.628Z,163.43
2023-01-06T05:51:34.600Z,155.96
2023-01-06T05:52:34.573Z,149.30
2023-01-06T05:53:34.501Z,149.12
2023-01-06T05:54:34.467Z,147.36
2023-01-06T05:55:34.760Z,140.04
2023-01-06T05:56:34.752Z,139.72
2023-01-06T05:57:34.775Z,135.87
2023-01-06T05:58:34.308Z,108.47
2023-01-06T05:59:34.375Z,87.56
2023-01-06T06:00:34.201Z,73.42
2023-01-06T06:01:34.215Z,65.78
2023-01-06T06:02:34.204Z,62.13
2023-01-06T06:03:34.152Z,58.50
2023-01-06T06:04:34.073Z,76.46
2023-01-06T06:05:34.127Z,62.32
2023-01-06T06:06:33.974Z,68.02
2023-01-06T06:07:33.927Z,64.91
2023-01-06T06:08:33.894Z,60.61
2023-01-06T06:09:33.907Z,69.88
2023-01-06T06:10:34.479Z,64.76
2023-01-06T06:11:33.783Z,75.09
2023-01-06T06:12:34.107Z,70.49
2023-01-06T06:13:34.149Z,67.21
2023-01-06T06:14:34.062Z,70.80
2023-01-06T06:15:33.602Z,82.90
2023-01-06T06:16:34.033Z,71.14
2023-01-06T06:17:33.902Z,76.98
2023-01-06T06:18:33.734Z,83.83
2023-01-06T06:19:33.443Z,86.84
2023-01-06T06:20:33.717Z,98.02
2023-01-06T06:21:33.462Z,102.19
2023-01-06T06:22:33.689Z,105.93
2023-01-06T06:23:33.874Z,133.18
2023-01-06T06:24:33.752Z,156.94
2023-01-06T06:25:33.217Z,167.95
2023-01-06T06:26:33.125Z,181.99
2023-01-06T06:27:33.077Z,192.66
2023-01-06T06:28:33.773Z,214.07
2023-01-06T06:29:33.003Z,236.67
2023-01-06T06:30:32.953Z,250.97
2023-01-06T06:31:33.275Z,250.00
2023-01-06T06:32:33.282Z,250.00
2023-01-06T06:33:32.824Z,250.00
2023-01-06T06:34:33.413Z,250.00
2023-01-06T06:35:32.742Z,250.40
2023-01-06T06:36:32.709Z,249.68
2023-01-06T06:37:32.780Z,248.51
2023-01-06T06:38:33.182Z,248.76
2023-01-06T06:39:32.592Z,246.42
2023-01-06T06:40:33.242Z,242.93
2023-01-06T06:41:32.948Z,244.60
2023-01-06T06:42:33.095Z,247.34
2023-01-06T06:43:32.451Z,250.00
2023-01-06T06:44:32.477Z,250.00
2023-01-06T06:45:32.876Z,249.89
2023-01-06T06:46:32.386Z,249.87
2023-01-06T06:47:32.331Z,250.00
2023-01-06T06:48:32.741Z,247.83
2023-01-06T06:49:32.261Z,249.92
2023-01-06T06:50:32.585Z,248.06
2023-01-06T06:51:32.219Z,247.59
2023-01-06T06:52:32.728Z,249.96
2023-01-06T06:53:32.821Z,249.68
2023-01-06T06:54:32.355Z,246.71
2023-01-06T06:55:32.038Z,237.65
2023-01-06T06:56:32.031Z,236.97
2023-01-06T06:57:31.979Z,234.96
2023-01-06T06:58:31.955Z,230.03
2023-01-06T06:59:31.896Z,225.04
2023-01-06T07:00:32.832Z,219.55
2023-01-06T07:01:47.768Z,215.85
2023-01-06T07:02:32.693Z,216.29
2023-01-06T07:03:32.674Z,216.72
2023-01-06T07:04:32.480Z,217.55
2023-01-06T07:05:47.420Z,218.28
2023-01-06T07:06:32.558Z,216.31
2023-01-06T07:07:31.754Z,216.72
